JEF22 EFHK-ESOE
Flight info
| Callsign | JEF22 |
|---|---|
| Flight time | N/A |
| Altitude | 32000 |
| Route | ADIVO Y365 POGOK DCT ARS DCT EN |
| Aircraft | CL60/M-SBDE2E3FGHIJ1J3J4J5M1P2RWXYZ/LB1D1 |
Departure
| Time | 2026-04-25 16:54 |
|---|---|
| Airport | Helsinki Vantaa Airport (EFHK) |
Arrival
| Time | N/A |
|---|---|
| Airport | Örebro Airport (ESOE) |
| Time | Latitude | Longitude | Altitude | Speed | Heading |
|---|---|---|---|---|---|
| 2026-04-25 16:20 | 60.30829 | 24.98156 | 188 ft | 0 kts | 248° |
| 2026-04-25 16:46 | 60.30830 | 24.98117 | 189 ft | 6 kts | 307° |
| 2026-04-25 16:46 | 60.30866 | 24.98104 | 189 ft | 9 kts | 1° |
| 2026-04-25 16:46 | 60.30933 | 24.98054 | 189 ft | 11 kts | 330° |
| 2026-04-25 16:46 | 60.30984 | 24.97996 | 189 ft | 13 kts | 332° |
| 2026-04-25 16:47 | 60.31054 | 24.98016 | 189 ft | 7 kts | 75° |
| 2026-04-25 16:47 | 60.31091 | 24.98095 | 189 ft | 10 kts | 345° |
| 2026-04-25 16:47 | 60.31165 | 24.98023 | 189 ft | 13 kts | 333° |
| 2026-04-25 16:47 | 60.31255 | 24.97932 | 188 ft | 15 kts | 334° |
| 2026-04-25 16:48 | 60.31359 | 24.97824 | 188 ft | 18 kts | 333° |
| 2026-04-25 16:48 | 60.31436 | 24.97743 | 188 ft | 19 kts | 333° |
| 2026-04-25 16:48 | 60.31564 | 24.97614 | 188 ft | 21 kts | 334° |
| 2026-04-25 16:48 | 60.31753 | 24.97418 | 188 ft | 24 kts | 333° |
| 2026-04-25 16:49 | 60.31906 | 24.97261 | 188 ft | 25 kts | 334° |
| 2026-04-25 16:49 | 60.32070 | 24.97092 | 188 ft | 27 kts | 333° |
| 2026-04-25 16:49 | 60.32165 | 24.96993 | 188 ft | 18 kts | 333° |
| 2026-04-25 16:49 | 60.32329 | 24.96823 | 188 ft | 21 kts | 333° |
| 2026-04-25 16:50 | 60.32422 | 24.96728 | 188 ft | 22 kts | 333° |
| 2026-04-25 16:50 | 60.32615 | 24.96516 | 188 ft | 25 kts | 331° |
| 2026-04-25 16:50 | 60.32772 | 24.96336 | 188 ft | 26 kts | 330° |
| 2026-04-25 16:50 | 60.32890 | 24.96192 | 188 ft | 14 kts | 323° |
| 2026-04-25 16:51 | 60.32912 | 24.96068 | 188 ft | 11 kts | 237° |
| 2026-04-25 16:51 | 60.32931 | 24.95933 | 188 ft | 13 kts | 330° |
| 2026-04-25 16:51 | 60.32987 | 24.95868 | 188 ft | 14 kts | 330° |
| 2026-04-25 16:51 | 60.33050 | 24.95793 | 188 ft | 16 kts | 330° |
| 2026-04-25 16:52 | 60.33169 | 24.95588 | 188 ft | 15 kts | 318° |
| 2026-04-25 16:52 | 60.33208 | 24.95419 | 188 ft | 13 kts | 254° |
| 2026-04-25 16:52 | 60.33147 | 24.95254 | 188 ft | 15 kts | 230° |
| 2026-04-25 16:52 | 60.33108 | 24.95049 | 188 ft | 16 kts | 273° |
| 2026-04-25 16:53 | 60.33116 | 24.94664 | 188 ft | 17 kts | 272° |
| 2026-04-25 16:53 | 60.33108 | 24.94383 | 188 ft | 15 kts | 242° |
| 2026-04-25 16:53 | 60.33041 | 24.94225 | 188 ft | 32 kts | 229° |
| 2026-04-25 16:54 | 60.32662 | 24.93395 | 188 ft | 126 kts | 229° |
| 2026-04-25 16:54 | 60.31952 | 24.91857 | 636 ft | 165 kts | 231° |
| 2026-04-25 16:54 | 60.31423 | 24.90710 | 1199 ft | 171 kts | 230° |
| 2026-04-25 16:54 | 60.30253 | 24.88176 | 2386 ft | 199 kts | 240° |
| 2026-04-25 16:55 | 60.29890 | 24.86532 | 3223 ft | 195 kts | 267° |
| 2026-04-25 16:55 | 60.30252 | 24.83098 | 4629 ft | 207 kts | 295° |
| 2026-04-25 16:55 | 60.30856 | 24.80303 | 5492 ft | 233 kts | 297° |
| 2026-04-25 16:55 | 60.31526 | 24.77292 | 6647 ft | 244 kts | 294° |
| 2026-04-25 16:56 | 60.31814 | 24.75053 | 7324 ft | 258 kts | 276° |
| 2026-04-25 16:56 | 60.31769 | 24.71409 | 8525 ft | 268 kts | 269° |
| 2026-04-25 16:56 | 60.31635 | 24.66408 | 10229 ft | 277 kts | 269° |
| 2026-04-25 16:56 | 60.31535 | 24.62514 | 11343 ft | 290 kts | 268° |
| 2026-04-25 16:57 | 60.31428 | 24.58350 | 12338 ft | 305 kts | 268° |
| 2026-04-25 16:57 | 60.31391 | 24.56929 | 12691 ft | 308 kts | 268° |
| 2026-04-25 16:57 | 60.31202 | 24.49716 | 14643 ft | 317 kts | 268° |
| 2026-04-25 16:57 | 60.31083 | 24.45250 | 15779 ft | 321 kts | 268° |
| 2026-04-25 16:58 | 60.31003 | 24.42252 | 16494 ft | 324 kts | 267° |
| 2026-04-25 16:58 | 60.30880 | 24.37688 | 17482 ft | 330 kts | 267° |
| 2026-04-25 16:58 | 60.30714 | 24.31552 | 18744 ft | 336 kts | 266° |
| 2026-04-25 16:58 | 60.30584 | 24.26831 | 19658 ft | 340 kts | 266° |
| 2026-04-25 16:59 | 60.30450 | 24.22020 | 20503 ft | 345 kts | 265° |
| 2026-04-25 16:59 | 60.30361 | 24.18814 | 21063 ft | 347 kts | 265° |
| 2026-04-25 16:59 | 60.30177 | 24.12315 | 22122 ft | 353 kts | 265° |
| 2026-04-25 16:59 | 60.30082 | 24.09006 | 22611 ft | 356 kts | 265° |
| 2026-04-25 17:00 | 60.29887 | 24.02287 | 23616 ft | 361 kts | 265° |
| 2026-04-25 17:00 | 60.29681 | 23.97218 | 24352 ft | 363 kts | 260° |
| 2026-04-25 17:00 | 60.29180 | 23.92282 | 24970 ft | 366 kts | 257° |
| 2026-04-25 17:00 | 60.28624 | 23.87226 | 25535 ft | 370 kts | 257° |
| 2026-04-25 17:01 | 60.28258 | 23.83881 | 25854 ft | 373 kts | 257° |
| 2026-04-25 17:01 | 60.27696 | 23.78750 | 26341 ft | 376 kts | 257° |
| 2026-04-25 17:01 | 60.27135 | 23.73646 | 26781 ft | 380 kts | 258° |
| 2026-04-25 17:01 | 60.26367 | 23.66675 | 27359 ft | 385 kts | 258° |
| 2026-04-25 17:02 | 60.25785 | 23.61419 | 27772 ft | 388 kts | 258° |
| 2026-04-25 17:02 | 60.25195 | 23.56097 | 28159 ft | 391 kts | 258° |
| 2026-04-25 17:02 | 60.24803 | 23.52572 | 28416 ft | 393 kts | 258° |
| 2026-04-25 17:02 | 60.24403 | 23.48980 | 28654 ft | 396 kts | 258° |
| 2026-04-25 17:03 | 60.23596 | 23.41768 | 29158 ft | 398 kts | 258° |
| 2026-04-25 17:03 | 60.22780 | 23.34513 | 29737 ft | 398 kts | 258° |
| 2026-04-25 17:03 | 60.22163 | 23.29049 | 30185 ft | 397 kts | 258° |
| 2026-04-25 17:03 | 60.21556 | 23.23688 | 30581 ft | 396 kts | 258° |
| 2026-04-25 17:04 | 60.21141 | 23.20039 | 30835 ft | 396 kts | 258° |
| 2026-04-25 17:04 | 60.20533 | 23.14700 | 31139 ft | 398 kts | 258° |
| 2026-04-25 17:04 | 60.19903 | 23.09189 | 31262 ft | 407 kts | 258° |
| 2026-04-25 17:05 | 60.18376 | 22.95917 | 31332 ft | 429 kts | 258° |
| 2026-04-25 17:05 | 60.16994 | 22.84029 | 31368 ft | 442 kts | 258° |
| 2026-04-25 17:05 | 60.16517 | 22.79941 | 31355 ft | 446 kts | 258° |
| 2026-04-25 17:06 | 60.15114 | 22.68021 | 31365 ft | 447 kts | 258° |
| 2026-04-25 17:06 | 60.13670 | 22.55846 | 31374 ft | 446 kts | 258° |
| 2026-04-25 17:07 | 60.12217 | 22.43704 | 31370 ft | 446 kts | 258° |
| 2026-04-25 17:07 | 60.10764 | 22.31664 | 31370 ft | 447 kts | 258° |
| 2026-04-25 17:08 | 60.09047 | 22.17569 | 31365 ft | 446 kts | 258° |
| 2026-04-25 17:08 | 60.07812 | 22.07520 | 31394 ft | 446 kts | 258° |
| 2026-04-25 17:09 | 60.06319 | 21.95443 | 31406 ft | 446 kts | 258° |
| 2026-04-25 17:09 | 60.04561 | 21.81356 | 31409 ft | 447 kts | 258° |
| 2026-04-25 17:10 | 60.03043 | 21.69311 | 31429 ft | 447 kts | 258° |
| 2026-04-25 17:10 | 60.01781 | 21.59361 | 31448 ft | 446 kts | 258° |
| 2026-04-25 17:11 | 59.99992 | 21.45378 | 31478 ft | 446 kts | 258° |
| 2026-04-25 17:11 | 59.98737 | 21.33334 | 31490 ft | 444 kts | 264° |
| 2026-04-25 17:12 | 59.98067 | 21.23195 | 31503 ft | 445 kts | 264° |
| 2026-04-25 17:12 | 59.97243 | 21.10999 | 31524 ft | 444 kts | 264° |
| 2026-04-25 17:13 | 59.96547 | 21.00858 | 31532 ft | 445 kts | 264° |
| 2026-04-25 17:13 | 59.95412 | 20.84591 | 31534 ft | 445 kts | 264° |